sensor_id;sensor_type;location;lat;lon;timestamp;P1;durP1;ratioP1;P2;durP2;ratioP2
20519;SDS011;53432;51.952;14.740;2022-08-19T00:00:34;9.60;;;8.48;;
20519;SDS011;53432;51.952;14.740;2022-08-19T00:03:02;9.52;;;7.35;;
20519;SDS011;53432;51.952;14.740;2022-08-19T00:05:30;11.05;;;9.02;;
20519;SDS011;53432;51.952;14.740;2022-08-19T00:07:57;9.63;;;7.97;;
20519;SDS011;53432;51.952;14.740;2022-08-19T00:10:25;9.98;;;8.13;;
20519;SDS011;53432;51.952;14.740;2022-08-19T00:12:52;13.75;;;8.50;;
20519;SDS011;53432;51.952;14.740;2022-08-19T00:15:21;10.50;;;7.78;;
20519;SDS011;53432;51.952;14.740;2022-08-19T00:17:49;12.90;;;9.35;;
20519;SDS011;53432;51.952;14.740;2022-08-19T00:20:17;11.18;;;9.13;;
20519;SDS011;53432;51.952;14.740;2022-08-19T00:22:47;10.60;;;9.05;;
20519;SDS011;53432;51.952;14.740;2022-08-19T00:25:14;10.80;;;9.10;;
20519;SDS011;53432;51.952;14.740;2022-08-19T00:27:42;13.25;;;9.95;;
20519;SDS011;53432;51.952;14.740;2022-08-19T00:30:10;14.82;;;10.18;;
20519;SDS011;53432;51.952;14.740;2022-08-19T00:32:39;13.45;;;9.82;;
20519;SDS011;53432;51.952;14.740;2022-08-19T00:35:07;11.23;;;8.57;;
20519;SDS011;53432;51.952;14.740;2022-08-19T00:37:36;13.63;;;9.68;;
20519;SDS011;53432;51.952;14.740;2022-08-19T00:40:04;13.27;;;10.32;;
20519;SDS011;53432;51.952;14.740;2022-08-19T00:42:33;16.52;;;10.45;;
20519;SDS011;53432;51.952;14.740;2022-08-19T00:45:00;11.88;;;10.30;;
20519;SDS011;53432;51.952;14.740;2022-08-19T00:47:29;13.65;;;9.82;;
20519;SDS011;53432;51.952;14.740;2022-08-19T00:49:57;12.13;;;10.40;;
20519;SDS011;53432;51.952;14.740;2022-08-19T00:52:26;11.82;;;10.57;;
20519;SDS011;53432;51.952;14.740;2022-08-19T00:54:56;14.90;;;11.73;;
20519;SDS011;53432;51.952;14.740;2022-08-19T00:57:26;13.48;;;11.05;;
20519;SDS011;53432;51.952;14.740;2022-08-19T00:59:56;14.65;;;11.20;;
20519;SDS011;53432;51.952;14.740;2022-08-19T01:02:26;13.15;;;11.45;;
20519;SDS011;53432;51.952;14.740;2022-08-19T01:04:53;17.42;;;12.27;;
20519;SDS011;53432;51.952;14.740;2022-08-19T01:07:23;20.77;;;12.10;;
20519;SDS011;53432;51.952;14.740;2022-08-19T01:09:50;19.50;;;11.63;;
20519;SDS011;53432;51.952;14.740;2022-08-19T01:12:18;15.52;;;11.07;;
20519;SDS011;53432;51.952;14.740;2022-08-19T01:14:47;15.70;;;11.32;;
20519;SDS011;53432;51.952;14.740;2022-08-19T01:17:15;17.42;;;12.05;;
20519;SDS011;53432;51.952;14.740;2022-08-19T01:19:43;13.40;;;10.85;;
20519;SDS011;53432;51.952;14.740;2022-08-19T01:22:19;13.45;;;10.95;;
20519;SDS011;53432;51.952;14.740;2022-08-19T01:24:54;15.25;;;11.45;;
20519;SDS011;53432;51.952;14.740;2022-08-19T01:27:21;13.68;;;11.45;;
20519;SDS011;53432;51.952;14.740;2022-08-19T01:29:48;14.32;;;10.95;;
20519;SDS011;53432;51.952;14.740;2022-08-19T01:32:16;13.10;;;10.85;;
20519;SDS011;53432;51.952;14.740;2022-08-19T01:34:45;12.93;;;11.07;;
20519;SDS011;53432;51.952;14.740;2022-08-19T01:37:13;14.32;;;12.23;;
20519;SDS011;53432;51.952;14.740;2022-08-19T01:39:42;15.43;;;10.57;;
20519;SDS011;53432;51.952;14.740;2022-08-19T01:42:09;14.80;;;11.45;;
20519;SDS011;53432;51.952;14.740;2022-08-19T01:44:38;12.20;;;10.90;;
20519;SDS011;53432;51.952;14.740;2022-08-19T01:47:06;14.40;;;11.05;;
20519;SDS011;53432;51.952;14.740;2022-08-19T01:49:35;15.43;;;11.35;;
20519;SDS011;53432;51.952;14.740;2022-08-19T01:52:03;14.10;;;11.93;;
20519;SDS011;53432;51.952;14.740;2022-08-19T01:54:30;14.95;;;11.65;;
20519;SDS011;53432;51.952;14.740;2022-08-19T01:57:01;13.30;;;11.40;;
20519;SDS011;53432;51.952;14.740;2022-08-19T01:59:31;15.95;;;11.23;;
20519;SDS011;53432;51.952;14.740;2022-08-19T02:01:59;15.68;;;11.05;;
20519;SDS011;53432;51.952;14.740;2022-08-19T02:04:26;17.45;;;11.05;;
20519;SDS011;53432;51.952;14.740;2022-08-19T02:06:54;15.25;;;12.27;;
20519;SDS011;53432;51.952;14.740;2022-08-19T02:09:21;16.02;;;11.35;;
20519;SDS011;53432;51.952;14.740;2022-08-19T02:11:48;16.30;;;12.07;;
20519;SDS011;53432;51.952;14.740;2022-08-19T02:14:17;14.52;;;12.02;;
20519;SDS011;53432;51.952;14.740;2022-08-19T02:16:44;19.85;;;12.65;;
20519;SDS011;53432;51.952;14.740;2022-08-19T02:19:12;14.98;;;12.43;;
20519;SDS011;53432;51.952;14.740;2022-08-19T02:21:39;17.35;;;12.18;;
20519;SDS011;53432;51.952;14.740;2022-08-19T02:24:06;19.67;;;12.43;;
20519;SDS011;53432;51.952;14.740;2022-08-19T02:26:34;14.52;;;12.00;;
20519;SDS011;53432;51.952;14.740;2022-08-19T02:29:02;16.38;;;11.70;;
20519;SDS011;53432;51.952;14.740;2022-08-19T02:31:31;12.23;;;10.60;;
20519;SDS011;53432;51.952;14.740;2022-08-19T02:33:59;18.70;;;11.35;;
20519;SDS011;53432;51.952;14.740;2022-08-19T02:36:26;13.70;;;11.43;;
20519;SDS011;53432;51.952;14.740;2022-08-19T02:38:54;15.23;;;11.13;;
20519;SDS011;53432;51.952;14.740;2022-08-19T02:41:22;15.10;;;11.25;;
20519;SDS011;53432;51.952;14.740;2022-08-19T02:43:50;18.30;;;11.43;;
20519;SDS011;53432;51.952;14.740;2022-08-19T02:46:19;15.90;;;10.95;;
20519;SDS011;53432;51.952;14.740;2022-08-19T02:48:51;14.98;;;10.23;;
20519;SDS011;53432;51.952;14.740;2022-08-19T02:51:20;12.55;;;10.40;;
20519;SDS011;53432;51.952;14.740;2022-08-19T02:53:49;13.98;;;10.20;;
20519;SDS011;53432;51.952;14.740;2022-08-19T02:56:16;12.35;;;9.85;;
20519;SDS011;53432;51.952;14.740;2022-08-19T02:58:44;12.27;;;9.85;;
20519;SDS011;53432;51.952;14.740;2022-08-19T03:01:19;15.80;;;10.82;;
20519;SDS011;53432;51.952;14.740;2022-08-19T03:03:49;12.20;;;10.25;;
20519;SDS011;53432;51.952;14.740;2022-08-19T03:06:17;16.63;;;10.50;;
20519;SDS011;53432;51.952;14.740;2022-08-19T03:08:46;13.68;;;10.48;;
20519;SDS011;53432;51.952;14.740;2022-08-19T03:11:15;15.82;;;11.10;;
20519;SDS011;53432;51.952;14.740;2022-08-19T03:13:44;14.93;;;11.93;;
20519;SDS011;53432;51.952;14.740;2022-08-19T03:16:12;12.75;;;11.23;;
20519;SDS011;53432;51.952;14.740;2022-08-19T03:18:39;14.75;;;10.82;;
20519;SDS011;53432;51.952;14.740;2022-08-19T03:21:08;15.35;;;10.70;;
20519;SDS011;53432;51.952;14.740;2022-08-19T03:23:36;15.18;;;11.15;;
20519;SDS011;53432;51.952;14.740;2022-08-19T03:26:04;11.95;;;10.18;;
20519;SDS011;53432;51.952;14.740;2022-08-19T03:28:32;17.08;;;11.48;;
20519;SDS011;53432;51.952;14.740;2022-08-19T03:31:01;14.68;;;11.05;;
20519;SDS011;53432;51.952;14.740;2022-08-19T03:33:30;18.08;;;11.43;;
20519;SDS011;53432;51.952;14.740;2022-08-19T03:35:59;13.98;;;10.93;;
20519;SDS011;53432;51.952;14.740;2022-08-19T03:38:32;16.35;;;10.80;;
20519;SDS011;53432;51.952;14.740;2022-08-19T03:41:02;14.50;;;11.38;;
20519;SDS011;53432;51.952;14.740;2022-08-19T03:43:32;15.20;;;11.57;;
20519;SDS011;53432;51.952;14.740;2022-08-19T03:46:00;16.08;;;11.90;;
20519;SDS011;53432;51.952;14.740;2022-08-19T03:48:29;13.88;;;11.88;;
20519;SDS011;53432;51.952;14.740;2022-08-19T03:50:58;12.80;;;10.48;;
20519;SDS011;53432;51.952;14.740;2022-08-19T03:53:26;15.55;;;11.20;;
20519;SDS011;53432;51.952;14.740;2022-08-19T03:55:57;15.55;;;11.07;;
20519;SDS011;53432;51.952;14.740;2022-08-19T03:58:26;13.20;;;11.05;;
20519;SDS011;53432;51.952;14.740;2022-08-19T04:00:54;13.77;;;10.68;;
20519;SDS011;53432;51.952;14.740;2022-08-19T04:03:21;17.85;;;10.90;;
20519;SDS011;53432;51.952;14.740;2022-08-19T04:05:49;13.32;;;10.98;;
20519;SDS011;53432;51.952;14.740;2022-08-19T04:08:17;17.48;;;11.57;;
20519;SDS011;53432;51.952;14.740;2022-08-19T04:10:45;18.40;;;11.07;;
20519;SDS011;53432;51.952;14.740;2022-08-19T04:13:15;15.77;;;11.38;;
20519;SDS011;53432;51.952;14.740;2022-08-19T04:15:44;16.23;;;11.40;;
20519;SDS011;53432;51.952;14.740;2022-08-19T04:18:13;15.32;;;11.38;;
20519;SDS011;53432;51.952;14.740;2022-08-19T04:20:41;13.63;;;11.60;;
20519;SDS011;53432;51.952;14.740;2022-08-19T04:23:09;15.75;;;11.20;;
20519;SDS011;53432;51.952;14.740;2022-08-19T04:25:38;20.30;;;10.75;;
20519;SDS011;53432;51.952;14.740;2022-08-19T04:28:07;15.48;;;10.98;;
20519;SDS011;53432;51.952;14.740;2022-08-19T04:30:41;14.07;;;11.00;;
20519;SDS011;53432;51.952;14.740;2022-08-19T04:33:10;16.70;;;11.27;;
20519;SDS011;53432;51.952;14.740;2022-08-19T04:35:39;16.58;;;10.95;;
20519;SDS011;53432;51.952;14.740;2022-08-19T04:38:08;16.77;;;12.13;;
20519;SDS011;53432;51.952;14.740;2022-08-19T04:40:39;14.65;;;12.75;;
20519;SDS011;53432;51.952;14.740;2022-08-19T04:43:25;14.65;;;12.52;;
20519;SDS011;53432;51.952;14.740;2022-08-19T04:45:54;17.83;;;13.30;;
20519;SDS011;53432;51.952;14.740;2022-08-19T04:48:22;21.85;;;12.43;;
20519;SDS011;53432;51.952;14.740;2022-08-19T04:50:52;17.35;;;13.35;;
20519;SDS011;53432;51.952;14.740;2022-08-19T04:53:23;15.07;;;12.77;;
20519;SDS011;53432;51.952;14.740;2022-08-19T04:55:54;15.15;;;12.85;;
20519;SDS011;53432;51.952;14.740;2022-08-19T04:58:21;20.83;;;12.82;;
20519;SDS011;53432;51.952;14.740;2022-08-19T05:00:50;18.08;;;13.43;;
20519;SDS011;53432;51.952;14.740;2022-08-19T05:03:19;21.52;;;13.95;;
20519;SDS011;53432;51.952;14.740;2022-08-19T05:05:47;17.02;;;12.75;;
20519;SDS011;53432;51.952;14.740;2022-08-19T05:08:17;18.75;;;13.27;;
20519;SDS011;53432;51.952;14.740;2022-08-19T05:10:46;18.88;;;13.07;;
20519;SDS011;53432;51.952;14.740;2022-08-19T05:13:16;18.88;;;12.45;;
20519;SDS011;53432;51.952;14.740;2022-08-19T05:15:52;15.88;;;12.10;;
20519;SDS011;53432;51.952;14.740;2022-08-19T05:18:22;15.60;;;12.88;;
20519;SDS011;53432;51.952;14.740;2022-08-19T05:21:08;23.48;;;13.38;;
20519;SDS011;53432;51.952;14.740;2022-08-19T05:24:08;17.40;;;12.65;;
20519;SDS011;53432;51.952;14.740;2022-08-19T05:26:36;15.23;;;12.30;;
20519;SDS011;53432;51.952;14.740;2022-08-19T05:29:03;15.15;;;12.20;;
20519;SDS011;53432;51.952;14.740;2022-08-19T05:31:33;18.83;;;11.48;;
20519;SDS011;53432;51.952;14.740;2022-08-19T05:34:05;14.45;;;11.73;;
20519;SDS011;53432;51.952;14.740;2022-08-19T05:36:33;18.90;;;12.18;;
20519;SDS011;53432;51.952;14.740;2022-08-19T05:39:03;17.58;;;12.40;;
20519;SDS011;53432;51.952;14.740;2022-08-19T05:41:31;15.10;;;12.38;;
20519;SDS011;53432;51.952;14.740;2022-08-19T05:44:00;19.70;;;12.50;;
20519;SDS011;53432;51.952;14.740;2022-08-19T05:46:31;15.80;;;11.52;;
20519;SDS011;53432;51.952;14.740;2022-08-19T05:49:00;14.07;;;11.52;;
20519;SDS011;53432;51.952;14.740;2022-08-19T05:51:28;20.33;;;11.82;;
20519;SDS011;53432;51.952;14.740;2022-08-19T05:53:56;17.88;;;12.63;;
20519;SDS011;53432;51.952;14.740;2022-08-19T05:56:24;16.40;;;12.70;;
20519;SDS011;53432;51.952;14.740;2022-08-19T05:58:51;14.30;;;11.80;;
20519;SDS011;53432;51.952;14.740;2022-08-19T06:01:19;17.42;;;11.95;;
20519;SDS011;53432;51.952;14.740;2022-08-19T06:03:47;17.35;;;12.07;;
20519;SDS011;53432;51.952;14.740;2022-08-19T06:06:15;15.40;;;12.80;;
20519;SDS011;53432;51.952;14.740;2022-08-19T06:08:44;16.63;;;12.27;;
20519;SDS011;53432;51.952;14.740;2022-08-19T06:11:17;16.52;;;13.05;;
20519;SDS011;53432;51.952;14.740;2022-08-19T06:13:47;16.60;;;12.73;;
20519;SDS011;53432;51.952;14.740;2022-08-19T06:16:18;17.00;;;12.50;;
20519;SDS011;53432;51.952;14.740;2022-08-19T06:18:48;14.15;;;12.30;;
20519;SDS011;53432;51.952;14.740;2022-08-19T06:21:20;16.67;;;11.60;;
20519;SDS011;53432;51.952;14.740;2022-08-19T06:23:50;15.10;;;12.50;;
20519;SDS011;53432;51.952;14.740;2022-08-19T06:26:18;17.27;;;12.27;;
20519;SDS011;53432;51.952;14.740;2022-08-19T06:28:47;13.55;;;12.07;;
20519;SDS011;53432;51.952;14.740;2022-08-19T06:31:15;15.43;;;12.40;;
20519;SDS011;53432;51.952;14.740;2022-08-19T06:33:46;15.00;;;12.63;;
20519;SDS011;53432;51.952;14.740;2022-08-19T06:36:17;16.40;;;12.45;;
20519;SDS011;53432;51.952;14.740;2022-08-19T06:38:54;18.77;;;13.18;;
20519;SDS011;53432;51.952;14.740;2022-08-19T06:41:22;15.68;;;12.15;;
20519;SDS011;53432;51.952;14.740;2022-08-19T06:43:49;17.75;;;12.10;;
20519;SDS011;53432;51.952;14.740;2022-08-19T06:46:17;16.45;;;12.20;;
20519;SDS011;53432;51.952;14.740;2022-08-19T06:48:46;19.63;;;12.60;;
20519;SDS011;53432;51.952;14.740;2022-08-19T06:51:14;16.52;;;13.10;;
20519;SDS011;53432;51.952;14.740;2022-08-19T06:53:44;17.05;;;13.10;;
20519;SDS011;53432;51.952;14.740;2022-08-19T06:56:14;15.85;;;13.48;;
20519;SDS011;53432;51.952;14.740;2022-08-19T06:58:42;22.55;;;13.98;;
20519;SDS011;53432;51.952;14.740;2022-08-19T07:01:10;16.65;;;13.82;;
20519;SDS011;53432;51.952;14.740;2022-08-19T07:03:37;16.10;;;13.65;;
20519;SDS011;53432;51.952;14.740;2022-08-19T07:06:05;17.48;;;13.55;;
20519;SDS011;53432;51.952;14.740;2022-08-19T07:08:35;20.33;;;14.93;;
20519;SDS011;53432;51.952;14.740;2022-08-19T07:11:06;20.45;;;15.35;;
20519;SDS011;53432;51.952;14.740;2022-08-19T07:13:37;19.20;;;14.90;;
20519;SDS011;53432;51.952;14.740;2022-08-19T07:16:05;18.98;;;15.05;;
20519;SDS011;53432;51.952;14.740;2022-08-19T07:18:33;21.08;;;16.10;;
20519;SDS011;53432;51.952;14.740;2022-08-19T07:21:02;19.58;;;14.82;;
20519;SDS011;53432;51.952;14.740;2022-08-19T07:23:32;20.35;;;15.13;;
20519;SDS011;53432;51.952;14.740;2022-08-19T07:26:04;17.83;;;14.57;;
20519;SDS011;53432;51.952;14.740;2022-08-19T07:28:32;19.95;;;15.32;;
20519;SDS011;53432;51.952;14.740;2022-08-19T07:31:01;18.70;;;15.20;;
20519;SDS011;53432;51.952;14.740;2022-08-19T07:33:29;18.15;;;15.30;;
20519;SDS011;53432;51.952;14.740;2022-08-19T07:35:58;20.88;;;15.77;;
20519;SDS011;53432;51.952;14.740;2022-08-19T07:38:25;22.38;;;16.35;;
20519;SDS011;53432;51.952;14.740;2022-08-19T07:40:52;20.27;;;15.65;;
20519;SDS011;53432;51.952;14.740;2022-08-19T07:43:20;18.40;;;15.85;;
20519;SDS011;53432;51.952;14.740;2022-08-19T07:45:50;19.63;;;16.15;;
20519;SDS011;53432;51.952;14.740;2022-08-19T07:48:20;18.00;;;15.57;;
20519;SDS011;53432;51.952;14.740;2022-08-19T07:50:51;19.13;;;15.52;;
20519;SDS011;53432;51.952;14.740;2022-08-19T07:53:19;22.17;;;16.60;;
20519;SDS011;53432;51.952;14.740;2022-08-19T07:55:47;22.38;;;18.17;;
20519;SDS011;53432;51.952;14.740;2022-08-19T07:58:15;20.15;;;17.45;;
20519;SDS011;53432;51.952;14.740;2022-08-19T08:00:45;25.85;;;17.80;;
20519;SDS011;53432;51.952;14.740;2022-08-19T08:03:15;21.73;;;17.02;;
20519;SDS011;53432;51.952;14.740;2022-08-19T08:05:45;21.73;;;17.05;;
20519;SDS011;53432;51.952;14.740;2022-08-19T08:08:31;23.88;;;17.58;;
20519;SDS011;53432;51.952;14.740;2022-08-19T08:11:16;21.00;;;17.30;;
20519;SDS011;53432;51.952;14.740;2022-08-19T08:13:45;20.58;;;17.50;;
20519;SDS011;53432;51.952;14.740;2022-08-19T08:16:13;23.17;;;18.27;;
20519;SDS011;53432;51.952;14.740;2022-08-19T08:18:41;23.20;;;17.17;;
20519;SDS011;53432;51.952;14.740;2022-08-19T08:21:13;21.73;;;17.45;;
20519;SDS011;53432;51.952;14.740;2022-08-19T08:23:40;21.80;;;17.00;;
20519;SDS011;53432;51.952;14.740;2022-08-19T08:26:08;19.98;;;17.27;;
20519;SDS011;53432;51.952;14.740;2022-08-19T08:28:36;24.17;;;17.77;;
20519;SDS011;53432;51.952;14.740;2022-08-19T08:31:04;27.80;;;19.05;;
20519;SDS011;53432;51.952;14.740;2022-08-19T08:33:31;24.05;;;18.55;;
20519;SDS011;53432;51.952;14.740;2022-08-19T08:35:58;25.52;;;18.08;;
20519;SDS011;53432;51.952;14.740;2022-08-19T08:38:27;27.38;;;19.40;;
20519;SDS011;53432;51.952;14.740;2022-08-19T08:40:58;24.17;;;19.02;;
20519;SDS011;53432;51.952;14.740;2022-08-19T08:43:33;28.58;;;19.23;;
20519;SDS011;53432;51.952;14.740;2022-08-19T08:46:03;23.45;;;18.90;;
20519;SDS011;53432;51.952;14.740;2022-08-19T08:48:35;25.83;;;19.60;;
20519;SDS011;53432;51.952;14.740;2022-08-19T08:51:08;23.83;;;18.60;;
20519;SDS011;53432;51.952;14.740;2022-08-19T08:53:39;26.00;;;19.35;;
20519;SDS011;53432;51.952;14.740;2022-08-19T08:56:08;25.33;;;18.98;;
20519;SDS011;53432;51.952;14.740;2022-08-19T08:58:41;24.33;;;18.92;;
20519;SDS011;53432;51.952;14.740;2022-08-19T09:01:15;22.02;;;18.80;;
20519;SDS011;53432;51.952;14.740;2022-08-19T09:03:43;30.48;;;18.77;;
20519;SDS011;53432;51.952;14.740;2022-08-19T09:06:12;24.70;;;18.30;;
20519;SDS011;53432;51.952;14.740;2022-08-19T09:08:50;23.77;;;17.75;;
20519;SDS011;53432;51.952;14.740;2022-08-19T09:14:19;23.30;;;17.10;;
20519;SDS011;53432;51.952;14.740;2022-08-19T09:17:00;22.77;;;18.50;;
20519;SDS011;53432;51.952;14.740;2022-08-19T09:19:29;23.92;;;17.52;;
20519;SDS011;53432;51.952;14.740;2022-08-19T09:21:56;25.40;;;17.27;;
20519;SDS011;53432;51.952;14.740;2022-08-19T09:24:27;25.20;;;17.98;;
20519;SDS011;53432;51.952;14.740;2022-08-19T09:26:55;23.13;;;17.85;;
20519;SDS011;53432;51.952;14.740;2022-08-19T09:29:22;29.92;;;19.08;;
20519;SDS011;53432;51.952;14.740;2022-08-19T09:31:50;26.48;;;19.13;;
20519;SDS011;53432;51.952;14.740;2022-08-19T09:34:17;32.20;;;19.05;;
20519;SDS011;53432;51.952;14.740;2022-08-19T09:36:45;26.20;;;18.88;;
20519;SDS011;53432;51.952;14.740;2022-08-19T09:39:14;29.85;;;19.85;;
20519;SDS011;53432;51.952;14.740;2022-08-19T09:41:43;25.02;;;19.30;;
20519;SDS011;53432;51.952;14.740;2022-08-19T09:44:10;26.70;;;20.00;;
20519;SDS011;53432;51.952;14.740;2022-08-19T09:46:38;30.02;;;20.73;;
20519;SDS011;53432;51.952;14.740;2022-08-19T09:49:05;24.92;;;18.45;;
20519;SDS011;53432;51.952;14.740;2022-08-19T09:51:33;27.30;;;18.35;;
20519;SDS011;53432;51.952;14.740;2022-08-19T09:54:02;23.65;;;18.45;;
20519;SDS011;53432;51.952;14.740;2022-08-19T09:56:30;23.60;;;19.08;;
20519;SDS011;53432;51.952;14.740;2022-08-19T09:59:01;24.90;;;18.00;;
20519;SDS011;53432;51.952;14.740;2022-08-19T10:01:30;21.77;;;16.85;;
20519;SDS011;53432;51.952;14.740;2022-08-19T10:03:59;24.45;;;18.02;;
20519;SDS011;53432;51.952;14.740;2022-08-19T10:06:30;24.83;;;18.27;;
20519;SDS011;53432;51.952;14.740;2022-08-19T10:08:59;29.77;;;19.20;;
20519;SDS011;53432;51.952;14.740;2022-08-19T10:11:26;29.70;;;18.67;;
20519;SDS011;53432;51.952;14.740;2022-08-19T10:13:54;28.80;;;18.98;;
20519;SDS011;53432;51.952;14.740;2022-08-19T10:16:23;24.27;;;17.42;;
20519;SDS011;53432;51.952;14.740;2022-08-19T10:18:52;31.65;;;19.00;;
20519;SDS011;53432;51.952;14.740;2022-08-19T10:21:22;24.73;;;19.13;;
20519;SDS011;53432;51.952;14.740;2022-08-19T10:23:52;27.52;;;18.70;;
20519;SDS011;53432;51.952;14.740;2022-08-19T10:26:23;23.88;;;18.20;;
20519;SDS011;53432;51.952;14.740;2022-08-19T10:28:53;25.98;;;19.25;;
20519;SDS011;53432;51.952;14.740;2022-08-19T10:31:22;29.48;;;19.05;;
20519;SDS011;53432;51.952;14.740;2022-08-19T10:33:52;29.08;;;19.85;;
20519;SDS011;53432;51.952;14.740;2022-08-19T10:36:24;25.10;;;18.67;;
20519;SDS011;53432;51.952;14.740;2022-08-19T10:38:53;26.15;;;18.90;;
20519;SDS011;53432;51.952;14.740;2022-08-19T10:41:24;28.17;;;18.27;;
20519;SDS011;53432;51.952;14.740;2022-08-19T10:43:53;28.85;;;19.00;;
20519;SDS011;53432;51.952;14.740;2022-08-19T10:46:25;27.67;;;20.40;;
20519;SDS011;53432;51.952;14.740;2022-08-19T10:48:53;26.13;;;20.08;;
20519;SDS011;53432;51.952;14.740;2022-08-19T10:51:21;28.15;;;17.50;;
20519;SDS011;53432;51.952;14.740;2022-08-19T10:54:06;24.27;;;18.55;;
20519;SDS011;53432;51.952;14.740;2022-08-19T10:56:34;27.25;;;19.90;;
20519;SDS011;53432;51.952;14.740;2022-08-19T10:59:19;26.52;;;19.42;;
20519;SDS011;53432;51.952;14.740;2022-08-19T11:01:50;27.52;;;19.73;;
20519;SDS011;53432;51.952;14.740;2022-08-19T11:04:18;23.77;;;18.50;;
20519;SDS011;53432;51.952;14.740;2022-08-19T11:06:48;27.13;;;19.10;;
20519;SDS011;53432;51.952;14.740;2022-08-19T11:09:16;26.25;;;19.77;;
20519;SDS011;53432;51.952;14.740;2022-08-19T11:11:45;40.20;;;22.75;;
20519;SDS011;53432;51.952;14.740;2022-08-19T11:14:13;26.80;;;21.15;;
20519;SDS011;53432;51.952;14.740;2022-08-19T11:16:43;34.50;;;25.58;;
20519;SDS011;53432;51.952;14.740;2022-08-19T11:19:12;25.02;;;18.20;;
20519;SDS011;53432;51.952;14.740;2022-08-19T11:21:43;26.75;;;18.42;;
20519;SDS011;53432;51.952;14.740;2022-08-19T11:24:13;32.83;;;23.30;;
20519;SDS011;53432;51.952;14.740;2022-08-19T11:26:42;24.17;;;17.02;;
20519;SDS011;53432;51.952;14.740;2022-08-19T11:29:12;28.27;;;22.50;;
20519;SDS011;53432;51.952;14.740;2022-08-19T11:31:40;25.83;;;19.67;;
20519;SDS011;53432;51.952;14.740;2022-08-19T11:34:12;25.50;;;18.83;;
20519;SDS011;53432;51.952;14.740;2022-08-19T11:36:42;25.17;;;18.90;;
20519;SDS011;53432;51.952;14.740;2022-08-19T11:39:12;22.00;;;17.88;;
20519;SDS011;53432;51.952;14.740;2022-08-19T11:41:41;31.73;;;19.33;;
20519;SDS011;53432;51.952;14.740;2022-08-19T11:44:09;25.73;;;19.10;;
20519;SDS011;53432;51.952;14.740;2022-08-19T11:46:39;26.60;;;19.40;;
20519;SDS011;53432;51.952;14.740;2022-08-19T11:49:10;23.50;;;17.85;;
20519;SDS011;53432;51.952;14.740;2022-08-19T11:51:40;23.45;;;17.92;;
20519;SDS011;53432;51.952;14.740;2022-08-19T11:54:08;26.08;;;19.50;;
20519;SDS011;53432;51.952;14.740;2022-08-19T11:56:36;23.02;;;18.02;;
20519;SDS011;53432;51.952;14.740;2022-08-19T11:59:05;22.70;;;17.55;;
20519;SDS011;53432;51.952;14.740;2022-08-19T12:01:33;23.30;;;18.15;;
20519;SDS011;53432;51.952;14.740;2022-08-19T12:04:00;23.90;;;18.45;;
20519;SDS011;53432;51.952;14.740;2022-08-19T12:06:30;26.38;;;18.42;;
20519;SDS011;53432;51.952;14.740;2022-08-19T12:09:02;25.08;;;19.23;;
20519;SDS011;53432;51.952;14.740;2022-08-19T12:11:32;26.83;;;18.77;;
20519;SDS011;53432;51.952;14.740;2022-08-19T12:14:00;24.85;;;18.35;;
20519;SDS011;53432;51.952;14.740;2022-08-19T12:16:28;26.65;;;19.20;;
20519;SDS011;53432;51.952;14.740;2022-08-19T12:18:57;23.60;;;19.23;;
20519;SDS011;53432;51.952;14.740;2022-08-19T12:21:29;25.83;;;20.00;;
20519;SDS011;53432;51.952;14.740;2022-08-19T12:24:01;24.25;;;19.80;;
20519;SDS011;53432;51.952;14.740;2022-08-19T12:26:30;25.92;;;19.83;;
20519;SDS011;53432;51.952;14.740;2022-08-19T12:28:58;28.17;;;18.75;;
20519;SDS011;53432;51.952;14.740;2022-08-19T12:31:26;26.23;;;20.15;;
20519;SDS011;53432;51.952;14.740;2022-08-19T12:33:54;24.23;;;18.88;;
20519;SDS011;53432;51.952;14.740;2022-08-19T12:36:22;25.45;;;18.92;;
20519;SDS011;53432;51.952;14.740;2022-08-19T12:38:50;23.55;;;19.60;;
20519;SDS011;53432;51.952;14.740;2022-08-19T12:41:20;31.42;;;21.55;;
20519;SDS011;53432;51.952;14.740;2022-08-19T12:43:48;27.38;;;20.42;;
20519;SDS011;53432;51.952;14.740;2022-08-19T12:46:16;25.45;;;18.67;;
20519;SDS011;53432;51.952;14.740;2022-08-19T12:48:44;25.13;;;19.33;;
20519;SDS011;53432;51.952;14.740;2022-08-19T12:51:12;21.60;;;18.10;;
20519;SDS011;53432;51.952;14.740;2022-08-19T12:53:41;19.35;;;16.25;;
20519;SDS011;53432;51.952;14.740;2022-08-19T12:56:09;18.48;;;14.73;;
20519;SDS011;53432;51.952;14.740;2022-08-19T12:58:38;18.45;;;15.02;;
20519;SDS011;53432;51.952;14.740;2022-08-19T13:01:07;20.67;;;16.13;;
20519;SDS011;53432;51.952;14.740;2022-08-19T13:03:36;26.42;;;18.38;;
20519;SDS011;53432;51.952;14.740;2022-08-19T13:06:04;22.23;;;18.73;;
20519;SDS011;53432;51.952;14.740;2022-08-19T13:08:31;19.15;;;16.90;;
20519;SDS011;53432;51.952;14.740;2022-08-19T13:11:06;26.08;;;18.95;;
20519;SDS011;53432;51.952;14.740;2022-08-19T13:13:36;21.48;;;18.27;;
20519;SDS011;53432;51.952;14.740;2022-08-19T13:16:07;22.13;;;19.42;;
20519;SDS011;53432;51.952;14.740;2022-08-19T13:18:35;23.10;;;19.45;;
20519;SDS011;53432;51.952;14.740;2022-08-19T13:21:03;21.98;;;18.45;;
20519;SDS011;53432;51.952;14.740;2022-08-19T13:23:31;23.88;;;18.83;;
20519;SDS011;53432;51.952;14.740;2022-08-19T13:26:01;22.45;;;17.95;;
20519;SDS011;53432;51.952;14.740;2022-08-19T13:28:30;24.10;;;17.83;;
20519;SDS011;53432;51.952;14.740;2022-08-19T13:31:28;21.17;;;17.75;;
20519;SDS011;53432;51.952;14.740;2022-08-19T13:34:14;26.23;;;20.80;;
20519;SDS011;53432;51.952;14.740;2022-08-19T13:36:43;24.52;;;18.25;;
20519;SDS011;53432;51.952;14.740;2022-08-19T13:39:10;23.85;;;19.48;;
20519;SDS011;53432;51.952;14.740;2022-08-19T13:41:42;25.10;;;20.40;;
20519;SDS011;53432;51.952;14.740;2022-08-19T13:44:13;23.67;;;18.55;;
20519;SDS011;53432;51.952;14.740;2022-08-19T13:46:45;23.80;;;18.85;;
20519;SDS011;53432;51.952;14.740;2022-08-19T13:49:13;26.45;;;18.70;;
20519;SDS011;53432;51.952;14.740;2022-08-19T13:51:42;25.25;;;19.85;;
20519;SDS011;53432;51.952;14.740;2022-08-19T13:54:10;22.30;;;18.83;;
20519;SDS011;53432;51.952;14.740;2022-08-19T13:56:39;22.35;;;18.38;;
20519;SDS011;53432;51.952;14.740;2022-08-19T13:59:07;23.17;;;18.10;;
20519;SDS011;53432;51.952;14.740;2022-08-19T14:01:35;21.17;;;17.08;;
20519;SDS011;53432;51.952;14.740;2022-08-19T14:04:05;22.67;;;18.88;;
20519;SDS011;53432;51.952;14.740;2022-08-19T14:06:32;22.58;;;18.33;;
20519;SDS011;53432;51.952;14.740;2022-08-19T14:09:00;20.73;;;17.67;;
20519;SDS011;53432;51.952;14.740;2022-08-19T14:11:28;19.85;;;17.23;;
20519;SDS011;53432;51.952;14.740;2022-08-19T14:13:56;17.23;;;15.43;;
20519;SDS011;53432;51.952;14.740;2022-08-19T14:16:23;21.83;;;17.15;;
20519;SDS011;53432;51.952;14.740;2022-08-19T14:18:52;19.58;;;16.77;;
20519;SDS011;53432;51.952;14.740;2022-08-19T14:21:22;17.33;;;15.45;;
20519;SDS011;53432;51.952;14.740;2022-08-19T14:23:51;18.33;;;15.95;;